Time;durP1;ratioP1;P1;durP2;ratioP2;P2;SDS_P1;SDS_P2;PMS_P1;PMS_P2;Temp;Humidity;BMP_temperature;BMP_pressure;BME280_temperature;BME280_humidity;BME280_pressure;Samples;Min_cycle;Max_cycle;Signal;HPM_P1;HPM_P2
2022/01/09 00:01:05;;;;;;;24.20;8.38;;;;;;;-13.41;74.06;100490.94;4984835;28;20078;-78
2022/01/09 00:03:36;;;;;;;23.27;9.60;;;;;;;-13.20;73.70;100494.31;4986234;28;20053;-78
2022/01/09 00:06:08;;;;;;;52.90;17.42;;;;;;;-13.02;73.34;100494.06;4985944;28;20047;-78
2022/01/09 00:08:39;;;;;;;48.25;15.35;;;;;;;-12.78;73.05;100485.91;4986085;28;20058;-78
2022/01/09 00:11:10;;;;;;;20.65;8.07;;;;;;;-12.74;73.13;100472.84;4986200;28;20047;-78
2022/01/09 00:13:42;;;;;;;33.63;9.95;;;;;;;-12.53;73.49;100492.88;4985984;28;20298;-78
2022/01/09 00:16:13;;;;;;;19.33;6.68;;;;;;;-12.37;73.65;100490.84;4985847;28;20047;-78
2022/01/09 00:18:44;;;;;;;12.20;5.07;;;;;;;-12.13;73.80;100496.88;4985892;28;20085;-79
2022/01/09 00:21:15;;;;;;;10.15;4.78;;;;;;;-11.87;73.66;100491.31;4985761;28;20058;-78
2022/01/09 00:23:46;;;;;;;7.63;4.25;;;;;;;-11.77;73.30;100491.22;4985796;28;20110;-78
2022/01/09 00:26:17;;;;;;;10.18;4.28;;;;;;;-11.75;73.15;100479.63;4985837;28;20081;-78
2022/01/09 00:28:49;;;;;;;31.85;9.32;;;;;;;-11.67;73.13;100487.75;4985676;28;20346;-78
2022/01/09 00:31:20;;;;;;;52.20;16.38;;;;;;;-11.54;73.10;100489.53;4985376;28;20298;-78
2022/01/09 00:33:51;;;;;;;37.72;11.85;;;;;;;-11.42;72.92;100492.97;4985547;28;20054;-78
2022/01/09 00:36:21;;;;;;;39.10;10.38;;;;;;;-11.26;72.78;100500.03;4985380;28;20223;-78
2022/01/09 00:38:52;;;;;;;25.23;7.55;;;;;;;-11.06;72.77;100514.13;4985500;28;20286;-77
2022/01/09 00:41:23;;;;;;;15.25;5.97;;;;;;;-10.86;72.29;100498.81;4985586;28;20046;-78
2022/01/09 00:43:56;;;;;;;9.27;5.00;;;;;;;-10.39;72.08;100497.00;4985321;28;20143;-77
2022/01/09 00:46:27;;;;;;;6.50;4.13;;;;;;;-10.14;70.97;100504.63;4985408;28;20451;-77
2022/01/09 00:48:57;;;;;;;8.35;4.18;;;;;;;-10.08;70.60;100495.84;4985326;28;20105;-77
2022/01/09 00:51:28;;;;;;;6.15;3.63;;;;;;;-9.95;70.26;100486.56;4985208;28;20097;-77
2022/01/09 00:53:59;;;;;;;4.18;3.28;;;;;;;-9.68;69.61;100487.53;4985250;28;20054;-77
2022/01/09 00:56:30;;;;;;;7.32;4.38;;;;;;;-9.48;69.06;100486.34;4985107;28;20173;-77
2022/01/09 00:59:02;;;;;;;5.47;3.35;;;;;;;-9.38;68.35;100483.69;4985129;28;20050;-77
2022/01/09 01:01:33;;;;;;;5.00;3.20;;;;;;;-9.34;67.81;100481.44;4985105;28;20098;-77
2022/01/09 01:04:04;;;;;;;4.30;3.13;;;;;;;-9.26;67.68;100487.03;4985109;28;20078;-78
2022/01/09 01:06:34;;;;;;;5.22;3.40;;;;;;;-9.23;67.66;100494.81;4985210;28;20105;-77
2022/01/09 01:09:05;;;;;;;12.73;5.20;;;;;;;-9.16;67.89;100484.34;4984957;28;20126;-77
2022/01/09 01:11:36;;;;;;;23.45;8.93;;;;;;;-9.14;67.61;100484.41;4984063;28;20054;-77
2022/01/09 01:14:08;;;;;;;13.60;6.88;;;;;;;-9.26;67.94;100474.38;4985183;28;20051;-77
2022/01/09 01:16:39;;;;;;;21.13;10.40;;;;;;;-9.27;68.57;100477.66;4984815;28;20046;-77
2022/01/09 01:19:10;;;;;;;10.68;5.00;;;;;;;-9.24;68.87;100477.88;4984754;28;20078;-77
2022/01/09 01:21:41;;;;;;;33.42;15.18;;;;;;;-9.23;69.13;100469.50;4984781;28;20339;-77
2022/01/09 01:24:12;;;;;;;13.35;6.97;;;;;;;-9.23;69.12;100472.03;4984764;28;20106;-77
2022/01/09 01:26:43;;;;;;;11.82;6.88;;;;;;;-9.26;69.60;100473.47;4984804;28;20394;-77
2022/01/09 01:29:15;;;;;;;17.88;9.15;;;;;;;-9.20;69.58;100468.84;4984585;28;20078;-77
2022/01/09 01:31:46;;;;;;;6.28;4.53;;;;;;;-9.30;69.53;100426.88;4984249;28;20070;-78
2022/01/09 01:34:17;;;;;;;8.02;5.15;;;;;;;-8.95;69.83;100451.06;4984564;28;20430;-78
2022/01/09 01:36:48;;;;;;;8.50;5.03;;;;;;;-8.79;69.53;100474.03;4984543;28;20074;-77
2022/01/09 01:39:19;;;;;;;9.68;5.38;;;;;;;-8.61;69.48;100463.31;4984348;28;20228;-77
2022/01/09 01:41:50;;;;;;;6.40;3.78;;;;;;;-8.23;69.48;100458.09;4984214;28;20086;-77
2022/01/09 01:44:25;;;;;;;4.50;2.35;;;;;;;-7.99;68.58;100458.69;4984266;28;20290;-78
2022/01/09 01:46:56;;;;;;;5.07;2.60;;;;;;;-8.01;68.20;100455.22;4984383;28;20051;-78
2022/01/09 01:49:26;;;;;;;6.00;2.85;;;;;;;-8.02;68.05;100453.44;4984211;28;20061;-77
2022/01/09 01:51:57;;;;;;;4.88;2.72;;;;;;;-7.94;68.09;100446.28;4984014;28;20054;-77
2022/01/09 01:54:28;;;;;;;2.97;2.53;;;;;;;-7.87;68.17;100444.22;4984200;28;20047;-77
2022/01/09 01:56:59;;;;;;;5.43;3.00;;;;;;;-7.89;68.34;100444.91;4984102;28;20054;-77
2022/01/09 01:59:31;;;;;;;5.70;2.72;;;;;;;-7.71;68.29;100442.56;4984056;28;20078;-77
2022/01/09 02:02:02;;;;;;;4.55;2.53;;;;;;;-7.57;68.54;100438.34;4984144;28;20058;-77
2022/01/09 02:04:33;;;;;;;5.35;2.60;;;;;;;-7.44;67.82;100441.69;4984156;28;20250;-77
2022/01/09 02:07:05;;;;;;;3.63;2.50;;;;;;;-7.35;68.41;100437.94;4983866;28;20056;-77
2022/01/09 02:09:36;;;;;;;6.43;2.80;;;;;;;-7.24;67.97;100440.31;4983768;28;20053;-77
2022/01/09 02:12:08;;;;;;;4.03;2.50;;;;;;;-7.43;67.10;100438.34;4983935;28;20058;-77
2022/01/09 02:14:44;;;;;;;3.70;2.75;;;;;;;-7.27;67.34;100434.16;4983955;28;20319;-77
2022/01/09 02:17:19;;;;;;;7.05;2.88;;;;;;;-7.13;67.71;100448.53;4983616;28;20449;-77
2022/01/09 02:19:55;;;;;;;5.80;3.10;;;;;;;-7.19;67.67;100448.16;4983624;28;20046;-77
2022/01/09 02:22:31;;;;;;;3.80;2.20;;;;;;;-7.43;67.65;100430.75;4983514;28;20047;-77
2022/01/09 02:25:02;;;;;;;2.58;2.28;;;;;;;-7.37;67.50;100448.84;4983424;28;20287;-77
2022/01/09 02:27:32;;;;;;;4.35;2.58;;;;;;;-7.52;67.77;100447.97;4983524;28;20090;-77
2022/01/09 02:30:03;;;;;;;4.35;2.75;;;;;;;-7.59;67.91;100438.22;4983566;28;20058;-77
2022/01/09 02:32:37;;;;;;;6.03;2.55;;;;;;;-7.50;67.92;100446.38;4983371;28;20283;-77
2022/01/09 02:35:10;;;;;;;4.07;3.05;;;;;;;-7.45;68.04;100445.00;4983388;28;20083;-77
2022/01/09 02:37:40;;;;;;;3.33;2.50;;;;;;;-7.18;67.89;100435.56;4983491;28;20082;-77
2022/01/09 02:40:12;;;;;;;4.50;2.33;;;;;;;-7.07;66.47;100433.63;4983443;28;20212;-77
2022/01/09 02:42:43;;;;;;;5.47;2.10;;;;;;;-7.15;66.45;100419.63;4983526;28;20070;-77
2022/01/09 02:45:15;;;;;;;4.30;2.17;;;;;;;-7.45;66.29;100413.66;4983038;28;20062;-76
2022/01/09 02:47:46;;;;;;;4.03;2.13;;;;;;;-7.49;66.78;100437.97;4983392;28;20054;-77
2022/01/09 02:50:30;;;;;;;3.53;2.08;;;;;;;-7.68;67.27;100440.25;4983204;28;20047;-77
2022/01/09 02:53:12;;;;;;;4.03;2.63;;;;;;;-7.74;67.42;100429.72;4982992;28;20047;-77
2022/01/09 02:55:44;;;;;;;5.72;2.35;;;;;;;-7.78;67.43;100417.66;4982905;28;20086;-77
2022/01/09 02:58:15;;;;;;;4.05;2.17;;;;;;;-7.56;67.70;100424.84;4982859;28;20047;-77
2022/01/09 03:00:46;;;;;;;5.00;2.40;;;;;;;-7.59;67.30;100420.47;4982758;28;20270;-77
2022/01/09 03:03:17;;;;;;;4.18;2.33;;;;;;;-7.47;67.50;100423.72;4982810;28;20113;-76
2022/01/09 03:05:50;;;;;;;4.47;2.67;;;;;;;-7.48;67.36;100429.59;4982775;28;20054;-77
2022/01/09 03:08:20;;;;;;;4.55;2.40;;;;;;;-7.42;66.78;100434.16;4982704;28;20266;-77
2022/01/09 03:10:52;;;;;;;3.60;2.13;;;;;;;-7.22;66.28;100436.16;4982735;28;20047;-78
2022/01/09 03:13:22;;;;;;;3.28;2.28;;;;;;;-7.11;66.49;100431.72;4982532;28;20053;-77
2022/01/09 03:15:53;;;;;;;3.22;2.08;;;;;;;-6.99;66.45;100427.34;4982686;28;20055;-77
2022/01/09 03:18:26;;;;;;;3.35;2.30;;;;;;;-7.12;66.23;100419.78;4982751;28;20054;-77
2022/01/09 03:20:59;;;;;;;4.97;2.22;;;;;;;-7.13;66.12;100423.13;4982649;28;20378;-77
2022/01/09 03:23:29;;;;;;;4.22;1.95;;;;;;;-7.09;66.23;100417.41;4982677;28;20055;-77
2022/01/09 03:26:02;;;;;;;5.18;2.30;;;;;;;-6.96;66.47;100427.50;4982655;28;20338;-77
2022/01/09 03:28:33;;;;;;;4.30;2.35;;;;;;;-6.99;66.20;100421.34;4982502;28;20093;-77
2022/01/09 03:31:04;;;;;;;5.00;2.45;;;;;;;-6.86;66.24;100422.91;4982440;28;20146;-77
2022/01/09 03:33:34;;;;;;;5.70;2.67;;;;;;;-6.66;66.25;100421.47;4982419;28;20054;-77
2022/01/09 03:36:07;;;;;;;4.47;2.45;;;;;;;-6.60;65.74;100420.16;4981963;28;20059;-78
2022/01/09 03:38:38;;;;;;;8.27;2.63;;;;;;;-6.53;65.42;100412.06;4982409;28;20082;-78
2022/01/09 03:41:08;;;;;;;2.83;2.05;;;;;;;-6.33;65.43;100414.81;4982453;28;20046;-78
2022/01/09 03:43:39;;;;;;;4.18;2.35;;;;;;;-6.13;64.82;100406.56;4982468;28;20122;-78
2022/01/09 03:46:10;;;;;;;3.53;2.30;;;;;;;-5.99;64.82;100406.41;4982413;28;20401;-79
2022/01/09 03:48:41;;;;;;;3.65;2.30;;;;;;;-5.90;64.09;100415.34;4980970;28;20101;-77
2022/01/09 03:51:13;;;;;;;3.72;2.45;;;;;;;-6.03;63.75;100417.22;4981842;28;20272;-77
2022/01/09 03:53:45;;;;;;;4.57;2.40;;;;;;;-6.09;64.22;100413.56;4976669;28;20078;-79
2022/01/09 03:56:16;;;;;;;5.10;2.50;;;;;;;-6.15;64.64;100413.25;4983841;28;20121;-77
2022/01/09 03:58:46;;;;;;;3.95;2.30;;;;;;;-6.26;63.02;100409.28;4990392;28;20066;-78
2022/01/09 04:01:17;;;;;;;7.63;2.95;;;;;;;-6.30;64.02;100402.25;4986232;28;20074;-77
2022/01/09 04:03:48;;;;;;;2.72;2.20;;;;;;;-6.34;63.62;100407.97;4982095;28;20054;-78
2022/01/09 04:06:23;;;;;;;4.20;2.17;;;;;;;-6.44;63.48;100415.88;4982269;28;20094;-77
2022/01/09 04:08:54;;;;;;;4.57;2.45;;;;;;;-6.45;63.88;100411.63;4979729;28;20051;-78
2022/01/09 04:11:28;;;;;;;4.75;2.22;;;;;;;-6.37;63.95;100417.97;4974166;28;20247;-78
2022/01/09 04:13:58;;;;;;;4.15;2.50;;;;;;;-6.45;63.16;100421.78;4962709;28;20106;-78
2022/01/09 04:16:29;;;;;;;5.20;2.38;;;;;;;-6.60;63.68;100424.38;4962549;28;20079;-78
2022/01/09 04:19:00;;;;;;;3.30;2.22;;;;;;;-6.69;63.67;100409.47;4962755;28;20087;-78
2022/01/09 04:21:33;;;;;;;5.30;2.45;;;;;;;-6.67;63.79;100425.69;4962640;28;20055;-78
2022/01/09 04:24:03;;;;;;;4.72;2.45;;;;;;;-6.67;64.33;100425.69;4962580;28;20378;-78
2022/01/09 04:26:34;;;;;;;4.18;2.67;;;;;;;-6.66;64.69;100427.44;4980839;28;20081;-78
2022/01/09 04:29:05;;;;;;;6.55;2.70;;;;;;;-6.66;64.37;100432.53;4976498;28;20050;-77
2022/01/09 04:31:36;;;;;;;4.30;2.92;;;;;;;-6.65;63.98;100428.31;4981586;28;20073;-78
2022/01/09 04:34:07;;;;;;;5.28;2.50;;;;;;;-6.73;63.77;100445.69;4970273;28;20086;-78
2022/01/09 04:36:39;;;;;;;5.72;2.65;;;;;;;-6.76;63.87;100441.31;4980116;28;20057;-79
2022/01/09 04:39:10;;;;;;;5.10;2.95;;;;;;;-6.87;64.20;100423.72;4968163;28;20113;-79
2022/01/09 04:41:40;;;;;;;5.72;2.72;;;;;;;-6.80;64.41;100429.22;4981811;28;20300;-78
2022/01/09 04:44:11;;;;;;;4.70;2.65;;;;;;;-6.68;63.84;100439.19;4980284;28;20050;-79
2022/01/09 04:46:47;;;;;;;5.57;2.25;;;;;;;-6.87;64.08;100411.00;4974708;28;20069;-79
2022/01/09 04:49:22;;;;;;;4.75;2.33;;;;;;;-6.75;63.88;100437.97;4985683;28;20109;-78
2022/01/09 04:52:14;;;;;;;4.47;2.42;;;;;;;-6.73;64.23;100445.69;4985503;28;20350;-79
2022/01/09 04:54:45;;;;;;;8.93;2.70;;;;;;;-6.74;64.26;100438.84;4979422;28;20094;-79
2022/01/09 04:57:16;;;;;;;7.80;3.95;;;;;;;-6.69;64.49;100442.50;4985275;28;20055;-79
2022/01/09 04:59:47;;;;;;;6.45;3.00;;;;;;;-6.70;64.31;100440.78;4985215;28;20106;-79
2022/01/09 05:02:18;;;;;;;7.95;3.60;;;;;;;-6.72;63.97;100443.22;4985168;28;20232;-79
2022/01/09 05:04:48;;;;;;;4.07;2.47;;;;;;;-6.77;64.05;100448.84;4979123;28;20047;-79
2022/01/09 05:07:21;;;;;;;3.42;2.35;;;;;;;-6.81;63.91;100441.84;4976523;28;20212;-79
2022/01/09 05:09:52;;;;;;;10.02;2.67;;;;;;;-6.76;63.80;100450.59;4985143;28;20065;-79
2022/01/09 05:12:23;;;;;;;7.78;3.00;;;;;;;-6.81;63.67;100457.09;4984948;28;20093;-79
2022/01/09 05:14:53;;;;;;;4.82;2.47;;;;;;;-6.93;63.74;100425.94;4972571;28;20046;-79
2022/01/09 05:17:24;;;;;;;4.30;2.10;;;;;;;-6.88;63.38;100439.75;4968393;28;20043;-79
2022/01/09 05:19:57;;;;;;;6.25;2.40;;;;;;;-6.80;63.19;100463.91;4982031;28;20110;-80
2022/01/09 05:22:30;;;;;;;3.50;2.08;;;;;;;-6.78;63.32;100459.81;4983469;28;20069;-80
2022/01/09 05:25:02;;;;;;;3.45;2.47;;;;;;;-6.78;63.01;100458.13;4982591;28;20050;-80
2022/01/09 05:27:33;;;;;;;5.88;2.08;;;;;;;-6.88;62.61;100444.84;4979096;28;20054;-81
2022/01/09 05:30:06;;;;;;;3.85;2.10;;;;;;;-6.78;63.13;100460.69;4982305;28;20082;-80
2022/01/09 05:32:37;;;;;;;6.55;3.15;;;;;;;-6.78;62.74;100454.72;4988589;28;20121;-80
2022/01/09 05:35:08;;;;;;;5.63;2.47;;;;;;;-6.82;63.29;100460.41;4985890;28;20077;-79
2022/01/09 05:37:40;;;;;;;5.32;3.35;;;;;;;-6.88;63.41;100460.09;4984731;28;20255;-79
2022/01/09 05:40:12;;;;;;;7.80;3.67;;;;;;;-6.97;63.78;100468.91;4986224;28;20100;-79
2022/01/09 05:42:43;;;;;;;7.75;3.85;;;;;;;-7.04;63.58;100468.47;4984065;28;20076;-79
2022/01/09 05:45:16;;;;;;;8.68;3.85;;;;;;;-7.12;63.54;100459.56;4987970;28;20078;-78
2022/01/09 05:47:48;;;;;;;7.80;3.92;;;;;;;-7.06;63.65;100476.03;4986688;28;20283;-79
2022/01/09 05:50:19;;;;;;;5.75;3.60;;;;;;;-7.08;63.68;100472.53;4990943;28;20117;-78
2022/01/09 05:52:51;;;;;;;4.88;2.97;;;;;;;-7.11;63.60;100469.81;4984974;28;20055;-78
2022/01/09 05:55:22;;;;;;;4.55;3.10;;;;;;;-7.13;63.55;100473.91;4984485;28;20046;-78
2022/01/09 05:57:53;;;;;;;5.43;3.00;;;;;;;-7.20;63.54;100487.03;4982285;28;20134;-78
2022/01/09 06:00:24;;;;;;;12.10;5.00;;;;;;;-7.27;63.47;100474.78;4983179;28;20106;-79
2022/01/09 06:02:54;;;;;;;10.27;5.53;;;;;;;-7.28;63.28;100484.06;4979342;28;20054;-78
2022/01/09 06:05:25;;;;;;;5.32;3.25;;;;;;;-7.31;63.04;100499.13;4981946;28;20074;-79
2022/01/09 06:07:58;;;;;;;8.23;4.35;;;;;;;-7.34;63.50;100482.81;4982939;28;20047;-79
2022/01/09 06:10:29;;;;;;;5.88;2.15;;;;;;;-7.40;63.45;100489.28;4983151;28;20050;-78
2022/01/09 06:12:59;;;;;;;7.25;3.10;;;;;;;-7.47;63.89;100487.16;4979922;28;20061;-78
2022/01/09 06:15:30;;;;;;;13.05;6.40;;;;;;;-7.50;63.89;100486.13;4982934;28;20106;-78
2022/01/09 06:18:01;;;;;;;8.02;3.63;;;;;;;-7.70;64.22;100484.94;4984486;28;20039;-78
2022/01/09 06:20:31;;;;;;;6.95;3.80;;;;;;;-7.78;64.02;100499.72;4984127;28;20056;-78
2022/01/09 06:23:04;;;;;;;6.47;3.80;;;;;;;-7.90;64.53;100504.03;4987295;28;20050;-78
2022/01/09 06:25:35;;;;;;;6.68;4.30;;;;;;;-8.11;65.22;100483.28;4985103;28;20122;-79
2022/01/09 06:28:06;;;;;;;11.10;4.15;;;;;;;-8.23;65.36;100497.78;4987708;28;20105;-79
2022/01/09 06:30:37;;;;;;;6.05;3.83;;;;;;;-8.38;65.76;100498.56;4989058;28;20165;-79
2022/01/09 06:33:08;;;;;;;9.18;5.22;;;;;;;-8.68;65.98;100483.19;4991033;28;20289;-78
2022/01/09 06:35:39;;;;;;;8.30;5.00;;;;;;;-8.74;66.43;100513.19;4990889;28;20043;-79
2022/01/09 06:38:11;;;;;;;4.18;3.08;;;;;;;-8.94;66.61;100518.63;4989525;28;20073;-79
2022/01/09 06:40:42;;;;;;;5.40;2.80;;;;;;;-9.21;66.79;100515.16;4993174;28;20061;-79
2022/01/09 06:43:13;;;;;;;5.22;2.78;;;;;;;-9.55;67.43;100516.31;4989840;28;20246;-79
2022/01/09 06:45:44;;;;;;;4.97;3.22;;;;;;;-9.72;68.34;100524.41;4989002;28;20441;-79
2022/01/09 06:48:15;;;;;;;7.00;3.38;;;;;;;-10.08;69.11;100505.94;4988414;28;20338;-78
2022/01/09 06:50:45;;;;;;;16.58;4.85;;;;;;;-10.25;69.52;100532.56;4985339;28;20051;-77
2022/01/09 06:53:18;;;;;;;5.53;3.42;;;;;;;-10.49;70.48;100536.75;4983268;28;20050;-79
2022/01/09 06:55:49;;;;;;;13.40;4.45;;;;;;;-10.65;70.91;100539.84;4985125;28;20086;-80
2022/01/09 06:58:21;;;;;;;115.50;18.90;;;;;;;-10.83;71.53;100543.59;4986171;28;20139;-79
2022/01/09 07:00:52;;;;;;;215.85;37.00;;;;;;;-11.02;71.87;100531.25;4983607;28;20114;-79
2022/01/09 07:03:23;;;;;;;427.60;71.07;;;;;;;-10.98;71.88;100538.28;4977738;28;20047;-79
2022/01/09 07:05:54;;;;;;;332.75;65.80;;;;;;;-11.14;71.73;100555.56;4981854;28;20118;-79
2022/01/09 07:08:27;;;;;;;363.23;70.32;;;;;;;-11.35;71.68;100554.84;4981600;28;20042;-78
2022/01/09 07:10:58;;;;;;;66.53;20.23;;;;;;;-11.42;71.86;100568.63;4980918;28;20046;-79
2022/01/09 07:13:28;;;;;;;33.20;9.55;;;;;;;-11.51;72.60;100575.50;4981817;28;20042;-79
2022/01/09 07:15:59;;;;;;;13.05;7.15;;;;;;;-11.54;73.13;100577.78;4980840;28;20287;-78
2022/01/09 07:18:30;;;;;;;8.65;4.32;;;;;;;-11.61;73.38;100580.59;4973335;28;20051;-78
2022/01/09 07:21:02;;;;;;;6.60;3.95;;;;;;;-11.64;73.61;100585.44;4981764;28;20074;-79
2022/01/09 07:23:35;;;;;;;5.85;2.90;;;;;;;-12.04;73.82;100534.50;4980548;28;20358;-79
2022/01/09 07:26:06;;;;;;;6.13;3.50;;;;;;;-11.87;73.64;100587.09;4980907;28;20334;-80
2022/01/09 07:28:36;;;;;;;5.40;3.65;;;;;;;-12.00;73.97;100584.38;4981397;28;20121;-80
2022/01/09 07:31:08;;;;;;;36.97;11.40;;;;;;;-12.10;74.32;100594.47;4981246;28;20118;-79
2022/01/09 07:33:38;;;;;;;18.45;7.45;;;;;;;-12.13;74.82;100591.72;4981709;28;20361;-79
2022/01/09 07:36:09;;;;;;;6.07;4.45;;;;;;;-12.33;75.23;100587.63;4979834;28;20081;-79
2022/01/09 07:38:42;;;;;;;16.75;7.55;;;;;;;-12.54;75.49;100586.81;4981410;28;20082;-79
2022/01/09 07:41:14;;;;;;;23.75;10.25;;;;;;;-12.66;75.90;100581.66;4981255;28;20361;-79
2022/01/09 07:43:45;;;;;;;12.27;5.90;;;;;;;-12.60;76.14;100602.31;4978082;28;20274;-79
2022/01/09 07:46:16;;;;;;;37.05;15.60;;;;;;;-12.57;76.31;100601.66;4981425;28;20101;-79
2022/01/09 07:48:47;;;;;;;15.50;11.30;;;;;;;-12.70;76.30;100590.63;4981273;28;20105;-79
2022/01/09 07:51:17;;;;;;;8.25;5.25;;;;;;;-12.80;76.27;100603.22;4981218;28;20054;-79
2022/01/09 07:53:50;;;;;;;25.98;13.35;;;;;;;-12.99;76.59;100597.41;4981220;28;20091;-79
2022/01/09 07:56:20;;;;;;;6.68;5.00;;;;;;;-12.98;76.55;100604.19;4975553;28;20110;-79
2022/01/09 07:58:51;;;;;;;11.77;6.78;;;;;;;-13.06;76.36;100603.56;4984782;28;20035;-79
2022/01/09 08:01:25;;;;;;;18.55;8.23;;;;;;;-12.93;77.41;100605.47;4990406;28;20050;-79
2022/01/09 08:03:55;;;;;;;19.13;9.30;;;;;;;-12.69;77.18;100612.50;4986928;28;20069;-79
2022/01/09 08:06:26;;;;;;;18.13;6.90;;;;;;;-12.81;76.73;100617.41;4983917;28;20073;-79
2022/01/09 08:08:59;;;;;;;13.98;7.22;;;;;;;-12.87;76.71;100613.53;4980075;28;20049;-80
2022/01/09 08:11:29;;;;;;;14.68;7.15;;;;;;;-12.83;76.46;100620.53;4980450;28;20051;-79
2022/01/09 08:14:00;;;;;;;9.95;5.45;;;;;;;-12.81;76.51;100616.53;4983521;28;20106;-78
2022/01/09 08:16:31;;;;;;;9.43;4.80;;;;;;;-12.88;76.06;100620.19;4981002;28;20053;-78
2022/01/09 08:19:02;;;;;;;10.07;5.47;;;;;;;-12.93;75.94;100621.41;4979142;28;20386;-77
2022/01/09 08:21:33;;;;;;;6.68;4.15;;;;;;;-12.97;75.52;100643.72;4982913;28;20062;-79
2022/01/09 08:24:06;;;;;;;12.77;8.02;;;;;;;-13.30;75.39;100597.44;4984927;28;20110;-79
2022/01/09 08:26:37;;;;;;;17.27;6.78;;;;;;;-13.18;75.49;100638.63;4984751;28;20208;-77
2022/01/09 08:29:08;;;;;;;8.38;4.43;;;;;;;-13.22;75.72;100640.78;4984960;28;20169;-77
2022/01/09 08:31:38;;;;;;;9.63;5.15;;;;;;;-13.25;75.73;100646.44;4984511;28;20246;-79
2022/01/09 08:34:09;;;;;;;10.20;4.60;;;;;;;-13.37;75.45;100642.94;4984822;28;20061;-79
2022/01/09 08:36:40;;;;;;;11.57;5.35;;;;;;;-13.43;75.71;100649.94;4984754;28;20110;-79
2022/01/09 08:39:13;;;;;;;25.42;8.80;;;;;;;-13.51;75.72;100652.69;4984657;28;20053;-78
2022/01/09 08:41:43;;;;;;;14.70;6.43;;;;;;;-13.58;75.84;100650.41;4974463;28;20580;-78
2022/01/09 08:44:14;;;;;;;19.23;7.38;;;;;;;-13.59;75.75;100656.19;4984115;28;20058;-79
2022/01/09 08:46:45;;;;;;;13.50;6.25;;;;;;;-13.68;75.83;100662.94;4982095;28;20118;-79
2022/01/09 08:49:16;;;;;;;19.98;5.40;;;;;;;-13.79;75.64;100656.13;4984298;28;20082;-78
2022/01/09 08:51:47;;;;;;;12.95;5.40;;;;;;;-13.79;75.97;100671.19;4990653;28;20062;-78
2022/01/09 08:54:19;;;;;;;8.30;4.40;;;;;;;-13.78;76.27;100670.44;4993355;28;20321;-79
2022/01/09 08:56:50;;;;;;;23.15;6.72;;;;;;;-13.73;76.33;100679.25;4994899;28;20077;-80
2022/01/09 08:59:21;;;;;;;21.13;7.10;;;;;;;-13.73;76.24;100671.69;4993755;28;20113;-79
2022/01/09 09:01:51;;;;;;;40.78;10.32;;;;;;;-13.65;76.23;100678.28;4995362;28;20073;-79
2022/01/09 09:04:22;;;;;;;34.13;10.90;;;;;;;-13.56;76.28;100686.59;4995442;28;20042;-78
2022/01/09 09:06:53;;;;;;;15.85;6.25;;;;;;;-13.51;76.21;100672.78;4992677;28;20050;-79
2022/01/09 09:09:25;;;;;;;6.43;3.53;;;;;;;-13.22;76.52;100676.88;4991254;28;20127;-79
2022/01/09 09:11:56;;;;;;;7.50;3.15;;;;;;;-12.83;76.47;100688.47;4991547;28;20260;-79
2022/01/09 09:14:27;;;;;;;6.40;3.15;;;;;;;-12.56;76.40;100684.84;4989735;28;20118;-80
2022/01/09 09:16:58;;;;;;;4.50;2.70;;;;;;;-12.49;75.77;100666.09;4993131;28;20078;-80
2022/01/09 09:19:29;;;;;;;8.02;3.65;;;;;;;-12.24;75.23;100694.13;4992549;28;20142;-81
2022/01/09 09:22:00;;;;;;;3.40;2.42;;;;;;;-12.29;74.73;100671.09;4992128;28;20085;-82
2022/01/09 09:24:32;;;;;;;7.00;2.97;;;;;;;-12.16;74.21;100693.09;4991929;28;20061;-81
2022/01/09 09:27:03;;;;;;;6.47;2.92;;;;;;;-12.17;73.94;100692.25;4990697;28;20082;-81
2022/01/09 09:29:35;;;;;;;5.00;2.72;;;;;;;-12.10;73.91;100692.72;4991559;28;20078;-79
2022/01/09 09:32:06;;;;;;;6.10;2.70;;;;;;;-12.04;73.56;100698.25;4991946;28;20058;-80
2022/01/09 09:34:38;;;;;;;5.25;2.78;;;;;;;-11.99;73.50;100699.50;4991304;28;20054;-82
2022/01/09 09:37:09;;;;;;;4.13;2.60;;;;;;;-12.00;73.02;100702.81;4990189;28;20078;-80
2022/01/09 09:39:42;;;;;;;3.65;2.80;;;;;;;-11.99;73.20;100707.06;4989162;28;20085;-80
2022/01/09 09:42:12;;;;;;;9.80;4.85;;;;;;;-12.16;71.89;100713.25;4992664;28;20057;-79
2022/01/09 09:44:43;;;;;;;38.53;7.50;;;;;;;-12.57;71.68;100715.81;4992067;28;20062;-80
2022/01/09 09:47:15;;;;;;;73.25;12.32;;;;;;;-13.07;71.45;100713.38;4993093;28;20098;-79
2022/01/09 09:49:46;;;;;;;53.17;11.98;;;;;;;-13.34;71.69;100718.59;4991350;28;20086;-78
2022/01/09 09:52:18;;;;;;;66.78;14.50;;;;;;;-13.59;72.43;100713.97;4990868;28;20114;-79
2022/01/09 09:54:52;;;;;;;30.45;10.05;;;;;;;-13.88;72.91;100687.97;4992657;28;20050;-80
2022/01/09 09:57:24;;;;;;;13.88;5.10;;;;;;;-13.70;73.52;100719.72;4993208;28;20042;-80
2022/01/09 10:00:02;;;;;;;8.13;4.57;;;;;;;-13.68;73.93;100728.25;4992727;28;20053;-79
2022/01/09 10:02:44;;;;;;;7.82;3.42;;;;;;;-13.65;74.16;100721.00;4990789;28;20057;-79
2022/01/09 10:05:18;;;;;;;7.85;3.70;;;;;;;-13.58;74.34;100725.78;4990903;28;20049;-79
2022/01/09 10:07:54;;;;;;;4.68;3.35;;;;;;;-13.50;74.50;100729.88;4988746;28;20339;-80
2022/01/09 10:10:34;;;;;;;4.30;3.03;;;;;;;-13.97;74.47;100673.88;4992917;28;20043;-79
2022/01/09 10:13:09;;;;;;;6.05;3.20;;;;;;;-13.61;74.04;100730.56;4991701;28;20046;-79
2022/01/09 10:15:48;;;;;;;4.65;3.35;;;;;;;-13.63;74.35;100727.03;4991212;28;20103;-78
2022/01/09 10:18:40;;;;;;;12.30;4.80;;;;;;;-13.63;74.35;100722.00;4990322;28;20051;-78
2022/01/09 10:21:13;;;;;;;53.65;11.88;;;;;;;-13.64;74.27;100725.28;4990998;28;20066;-79
2022/01/09 10:24:05;;;;;;;25.33;6.50;;;;;;;-13.60;74.15;100732.34;4990673;28;20523;-79
2022/01/09 10:26:39;;;;;;;40.28;7.32;;;;;;;-13.55;74.19;100738.66;4987538;28;20416;-79
2022/01/09 10:29:11;;;;;;;33.92;8.27;;;;;;;-13.58;74.10;100725.78;4991237;28;20065;-79
2022/01/09 10:31:46;;;;;;;61.83;11.95;;;;;;;-13.41;74.15;100759.06;4990744;28;20086;-79
2022/01/09 10:34:17;;;;;;;42.83;9.30;;;;;;;-13.27;74.30;100748.56;4991890;28;20056;-79
2022/01/09 10:36:51;;;;;;;30.50;7.45;;;;;;;-13.18;73.88;100744.25;4992026;28;20085;-79
2022/01/09 10:39:31;;;;;;;142.15;28.77;;;;;;;-13.33;73.08;100745.50;4992792;28;20335;-80
2022/01/09 10:42:05;;;;;;;151.88;31.02;;;;;;;-13.57;72.82;100732.59;4990965;28;20105;-79
2022/01/09 10:44:38;;;;;;;79.75;21.33;;;;;;;-13.59;72.91;100746.66;4991054;28;20049;-79
2022/01/09 10:47:14;;;;;;;27.05;9.23;;;;;;;-13.65;73.19;100738.59;4990005;28;20055;-79
2022/01/09 10:49:47;;;;;;;21.17;9.13;;;;;;;-14.51;72.85;100605.53;4990932;28;20057;-79
2022/01/09 10:52:20;;;;;;;11.38;5.10;;;;;;;-13.79;72.78;100744.91;4990495;28;20064;-79
2022/01/09 10:54:52;;;;;;;5.05;3.30;;;;;;;-13.94;72.71;100744.47;4982586;28;20051;-79
2022/01/09 10:57:27;;;;;;;7.93;4.05;;;;;;;-14.11;72.58;100757.16;4983422;28;20059;-79
2022/01/09 11:00:07;;;;;;;13.80;5.32;;;;;;;-14.55;71.95;100708.91;4983369;28;20078;-78
2022/01/09 11:02:38;;;;;;;9.63;4.60;;;;;;;-14.56;72.18;100747.28;4983133;28;20093;-78
2022/01/09 11:05:10;;;;;;;6.80;3.65;;;;;;;-14.68;72.91;100741.16;4983248;28;20106;-78
2022/01/09 11:07:45;;;;;;;4.70;3.25;;;;;;;-14.95;73.03;100719.47;4983014;28;20050;-77
2022/01/09 11:10:20;;;;;;;4.95;3.30;;;;;;;-14.75;73.87;100741.34;4983189;28;20254;-78
2022/01/09 11:12:58;;;;;;;4.78;2.83;;;;;;;-14.86;73.62;100746.28;4983110;28;20050;-77
2022/01/09 11:15:35;;;;;;;4.65;3.08;;;;;;;-15.00;74.30;100746.63;4982940;28;20449;-77
2022/01/09 11:18:06;;;;;;;7.03;3.50;;;;;;;-15.09;74.33;100738.28;4982811;28;20043;-77
2022/01/09 11:20:37;;;;;;;6.65;3.00;;;;;;;-15.15;75.25;100720.16;4982801;28;20061;-77
2022/01/09 11:23:10;;;;;;;4.72;3.10;;;;;;;-15.01;75.48;100734.84;4982767;28;20061;-77
2022/01/09 11:25:45;;;;;;;12.55;6.05;;;;;;;-15.04;75.42;100739.59;4982532;28;20254;-77
2022/01/09 11:28:23;;;;;;;34.33;12.15;;;;;;;-15.09;75.56;100720.72;4982623;28;20054;-78
2022/01/09 11:31:03;;;;;;;57.80;20.35;;;;;;;-14.91;76.20;100744.09;4982301;28;20101;-78
2022/01/09 11:33:49;;;;;;;25.55;8.63;;;;;;;-14.93;76.26;100728.91;4982447;28;20054;-77
2022/01/09 11:36:27;;;;;;;20.38;7.72;;;;;;;-15.00;76.25;100714.03;4982356;28;20078;-78
2022/01/09 11:39:11;;;;;;;11.60;5.75;;;;;;;-14.87;76.37;100704.41;4982243;28;20053;-77